createdAt,value
2022-11-10T00:01:49.029Z,99520.16
2022-11-10T00:03:51.812Z,99521.56
2022-11-10T00:05:55.598Z,99521.84
2022-11-10T00:08:02.270Z,99523.47
2022-11-10T00:10:06.413Z,99522.66
2022-11-10T00:12:09.054Z,99523.75
2022-11-10T00:14:30.387Z,99515.06
2022-11-10T00:16:51.511Z,99514.56
2022-11-10T00:18:54.167Z,99509.72
2022-11-10T00:21:03.295Z,99513.75
2022-11-10T00:23:05.988Z,99501.53
2022-11-10T00:25:09.037Z,99503.44
2022-11-10T00:27:12.318Z,99505.31
2022-11-10T00:29:15.008Z,99505.00
2022-11-10T00:31:17.601Z,99510.47
2022-11-10T00:33:20.480Z,99503.94
2022-11-10T00:35:23.455Z,99510.41
2022-11-10T00:37:26.114Z,99506.31
2022-11-10T00:39:28.821Z,99506.31
2022-11-10T00:41:31.563Z,99498.44
2022-11-10T00:43:34.694Z,99508.75
2022-11-10T00:45:44.360Z,99507.66
2022-11-10T00:47:47.040Z,99504.69
2022-11-10T00:49:49.607Z,99501.69
2022-11-10T00:51:52.502Z,99495.44
2022-11-10T00:53:55.817Z,99491.88
2022-11-10T00:55:58.738Z,99503.28
2022-11-10T00:58:01.439Z,99500.28
2022-11-10T01:00:05.060Z,99511.72
2022-11-10T01:02:08.295Z,99513.63
2022-11-10T01:04:10.866Z,99506.28
2022-11-10T01:06:16.250Z,99510.63
2022-11-10T01:08:18.831Z,99513.13
2022-11-10T01:10:21.446Z,99510.66
2022-11-10T01:12:24.199Z,99527.53
2022-11-10T01:14:26.898Z,99519.66
2022-11-10T01:16:31.791Z,99512.81
2022-11-10T01:18:35.811Z,99510.09
2022-11-10T01:20:38.577Z,99504.63
2022-11-10T01:22:41.877Z,99506.56
2022-11-10T01:24:44.532Z,99513.63
2022-11-10T01:26:47.225Z,99508.16
2022-11-10T01:28:50.032Z,99502.72
2022-11-10T01:31:03.911Z,99493.22
2022-11-10T01:33:06.712Z,99502.72
2022-11-10T01:35:09.849Z,99505.44
2022-11-10T01:37:12.993Z,99487.53
2022-11-10T01:39:15.631Z,99495.44
2022-11-10T01:41:18.373Z,99495.13
2022-11-10T01:43:21.233Z,99482.63
2022-11-10T01:45:24.112Z,99502.75
2022-11-10T01:47:26.802Z,99493.78
2022-11-10T01:49:32.584Z,99488.88
2022-11-10T01:51:49.339Z,99497.25
2022-11-10T01:54:06.590Z,99491.31
2022-11-10T01:56:12.225Z,99495.13
2022-11-10T01:58:18.162Z,99490.47
2022-11-10T02:00:21.799Z,99495.66
2022-11-10T02:02:33.300Z,99489.69
2022-11-10T02:04:37.452Z,99486.91
2022-11-10T02:06:42.753Z,99489.09
2022-11-10T02:08:47.308Z,99485.00
2022-11-10T02:10:49.871Z,99487.44
2022-11-10T02:12:52.692Z,99476.53
2022-11-10T02:15:18.082Z,99486.91
2022-11-10T02:17:20.686Z,99477.63
2022-11-10T02:19:25.775Z,99474.34
2022-11-10T02:21:28.445Z,99479.78
2022-11-10T02:23:31.010Z,99480.31
2022-11-10T02:25:34.815Z,99477.59
2022-11-10T02:27:37.487Z,99478.38
2022-11-10T02:29:40.182Z,99475.66
2022-11-10T02:31:42.849Z,99481.13
2022-11-10T02:33:45.502Z,99486.56
2022-11-10T02:35:48.829Z,99487.63
2022-11-10T02:37:51.468Z,99482.97
2022-11-10T02:39:54.131Z,99481.88
2022-11-10T02:41:56.805Z,99487.03
2022-11-10T02:43:59.738Z,99478.84
2022-11-10T02:46:02.432Z,99488.44
2022-11-10T02:48:05.157Z,99492.22
2022-11-10T02:50:08.180Z,99492.22
2022-11-10T02:52:11.484Z,99486.81
2022-11-10T02:54:14.117Z,99498.19
2022-11-10T02:56:16.767Z,99490.22
2022-11-10T02:58:19.612Z,99501.13
2022-11-10T03:00:22.368Z,99492.94
2022-11-10T03:02:28.508Z,99485.09
2022-11-10T03:04:34.792Z,99490.22
2022-11-10T03:06:37.413Z,99480.66
2022-11-10T03:08:40.131Z,99484.50
2022-11-10T03:10:42.835Z,99485.84
2022-11-10T03:12:45.502Z,99488.56
2022-11-10T03:14:48.188Z,99488.28
2022-11-10T03:16:50.883Z,99484.72
2022-11-10T03:18:53.500Z,99486.34
2022-11-10T03:20:56.123Z,99477.06
2022-11-10T03:23:03.481Z,99479.25
2022-11-10T03:25:07.045Z,99473.31
2022-11-10T03:27:09.760Z,99472.47
2022-11-10T03:29:12.371Z,99469.75
2022-11-10T03:31:14.975Z,99473.00
2022-11-10T03:33:17.718Z,99474.13
2022-11-10T03:35:20.378Z,99473.31
2022-11-10T03:37:22.977Z,99485.25
2022-11-10T03:39:25.699Z,99486.09
2022-11-10T03:41:28.392Z,99487.69
2022-11-10T03:43:30.972Z,99495.88
2022-11-10T03:45:33.660Z,99486.34
2022-11-10T03:47:36.342Z,99486.88
2022-11-10T03:49:39.011Z,99483.34
2022-11-10T03:51:41.696Z,99485.78
2022-11-10T03:53:44.448Z,99490.13
2022-11-10T03:55:47.115Z,99486.56
2022-11-10T03:57:49.940Z,99484.44
2022-11-10T03:59:52.819Z,99479.78
2022-11-10T04:01:55.459Z,99488.81
2022-11-10T04:03:58.258Z,99482.28
2022-11-10T04:06:19.503Z,99491.53
2022-11-10T04:08:40.475Z,99493.13
2022-11-10T04:10:43.252Z,99501.91
2022-11-10T04:13:04.700Z,99495.63
2022-11-10T04:15:27.155Z,99492.63
2022-11-10T04:17:31.680Z,99495.88
2022-11-10T04:19:34.299Z,99501.31
2022-11-10T04:21:36.891Z,99506.50
2022-11-10T04:23:39.512Z,99511.63
2022-11-10T04:26:02.087Z,99501.53
2022-11-10T04:28:04.787Z,99519.00
2022-11-10T04:30:07.785Z,99529.09
2022-11-10T04:32:10.529Z,99518.19
2022-11-10T04:34:15.504Z,99516.53
2022-11-10T04:36:20.689Z,99530.97
2022-11-10T04:38:23.365Z,99527.94
2022-11-10T04:40:26.223Z,99529.28
2022-11-10T04:42:28.912Z,99529.28
2022-11-10T04:44:31.510Z,99530.63
2022-11-10T04:46:36.988Z,99528.72
2022-11-10T04:48:39.624Z,99529.22
2022-11-10T04:50:42.267Z,99531.97
2022-11-10T04:52:44.832Z,99530.56
2022-11-10T04:54:47.399Z,99524.31
2022-11-10T04:56:50.045Z,99526.50
2022-11-10T04:58:53.657Z,99521.06
2022-11-10T05:00:56.452Z,99529.75
2022-11-10T05:03:00.986Z,99523.78
2022-11-10T05:05:03.731Z,99536.81
2022-11-10T05:07:06.422Z,99511.56
2022-11-10T05:09:09.107Z,99527.84
2022-11-10T05:11:12.746Z,99528.63
2022-11-10T05:13:15.386Z,99526.72
2022-11-10T05:15:17.975Z,99525.63
2022-11-10T05:17:20.629Z,99527.53
2022-11-10T05:19:23.255Z,99523.44
2022-11-10T05:21:25.848Z,99529.16
2022-11-10T05:23:42.061Z,99528.06
2022-11-10T05:25:45.073Z,99528.06
2022-11-10T05:27:47.726Z,99531.09
2022-11-10T05:29:50.489Z,99528.06
2022-11-10T05:31:53.059Z,99533.22
2022-11-10T05:33:55.682Z,99532.63
2022-11-10T05:35:58.473Z,99539.22
2022-11-10T05:38:01.217Z,99540.81
2022-11-10T05:40:04.083Z,99538.94
2022-11-10T05:42:06.970Z,99526.09
2022-11-10T05:44:09.668Z,99529.03
2022-11-10T05:46:12.315Z,99535.31
2022-11-10T05:48:15.002Z,99532.09
2022-11-10T05:50:19.460Z,99533.16
2022-11-10T05:52:22.483Z,99530.44
2022-11-10T05:54:25.072Z,99533.69
2022-11-10T05:56:27.696Z,99525.78
2022-11-10T05:58:30.486Z,99532.88
2022-11-10T06:00:33.845Z,99531.25
2022-11-10T06:02:36.778Z,99536.69
2022-11-10T06:04:39.590Z,99539.16
2022-11-10T06:06:42.226Z,99536.69
2022-11-10T06:08:44.930Z,99545.41
2022-11-10T06:10:47.521Z,99548.94
2022-11-10T06:12:50.242Z,99544.31
2022-11-10T06:14:52.818Z,99547.84
2022-11-10T06:16:56.211Z,99549.50
2022-11-10T06:18:58.824Z,99552.50
2022-11-10T06:21:01.456Z,99550.56
2022-11-10T06:23:06.866Z,99559.31
2022-11-10T06:25:10.538Z,99554.66
2022-11-10T06:27:13.199Z,99564.78
2022-11-10T06:29:15.879Z,99558.72
2022-11-10T06:31:18.510Z,99572.88
2022-11-10T06:33:21.437Z,99566.31
2022-11-10T06:35:25.134Z,99558.13
2022-11-10T06:37:27.780Z,99570.09
2022-11-10T06:39:30.402Z,99559.78
2022-11-10T06:41:34.126Z,99567.66
2022-11-10T06:43:36.886Z,99570.09
2022-11-10T06:45:39.527Z,99571.22
2022-11-10T06:47:42.190Z,99569.28
2022-11-10T06:49:45.186Z,99575.56
2022-11-10T06:51:47.811Z,99576.38
2022-11-10T06:53:50.557Z,99579.09
2022-11-10T06:55:53.411Z,99579.41
2022-11-10T06:57:56.250Z,99578.81
2022-11-10T06:59:58.864Z,99576.88
2022-11-10T07:02:01.520Z,99576.59
2022-11-10T07:04:19.248Z,99570.34
2022-11-10T07:06:22.992Z,99580.66
2022-11-10T07:08:25.606Z,99572.75
2022-11-10T07:10:28.311Z,99582.00
2022-11-10T07:12:30.890Z,99580.06
2022-11-10T07:14:33.540Z,99587.44
2022-11-10T07:16:36.271Z,99579.78
2022-11-10T07:18:38.923Z,99578.41
2022-11-10T07:20:41.892Z,99577.59
2022-11-10T07:22:44.529Z,99577.59
2022-11-10T07:24:47.110Z,99579.22
2022-11-10T07:26:49.898Z,99586.88
2022-11-10T07:28:52.535Z,99587.97
2022-11-10T07:30:55.335Z,99585.25
2022-11-10T07:33:01.984Z,99590.94
2022-11-10T07:35:04.905Z,99580.31
2022-11-10T07:37:07.554Z,99587.09
2022-11-10T07:39:11.551Z,99588.16
2022-11-10T07:41:14.125Z,99591.16
2022-11-10T07:43:16.968Z,99583.50
2022-11-10T07:45:19.713Z,99581.94
2022-11-10T07:47:22.332Z,99592.50
2022-11-10T07:49:25.060Z,99593.84
2022-11-10T07:51:27.710Z,99584.59
2022-11-10T07:53:30.375Z,99597.38
2022-11-10T07:55:34.543Z,99600.94
2022-11-10T07:57:37.134Z,99593.84
2022-11-10T07:59:39.766Z,99593.56
2022-11-10T08:01:42.471Z,99594.94
2022-11-10T08:03:45.135Z,99594.94
2022-11-10T08:05:48.237Z,99596.28
2022-11-10T08:07:53.585Z,99600.09
2022-11-10T08:09:56.270Z,99593.03
2022-11-10T08:11:58.910Z,99597.59
2022-11-10T08:14:01.568Z,99592.69
2022-11-10T08:16:04.580Z,99595.94
2022-11-10T08:18:15.879Z,99583.09
2022-11-10T08:20:18.947Z,99589.59
2022-11-10T08:22:21.719Z,99590.69
2022-11-10T08:24:24.325Z,99586.78
2022-11-10T08:26:26.956Z,99595.78
2022-11-10T08:28:29.571Z,99596.31
2022-11-10T08:30:33.560Z,99591.38
2022-11-10T08:32:36.289Z,99598.44
2022-11-10T08:34:38.881Z,99602.59
2022-11-10T08:36:41.522Z,99607.75
2022-11-10T08:38:44.085Z,99604.72
2022-11-10T08:40:47.087Z,99607.44
2022-11-10T08:42:57.665Z,99601.50
2022-11-10T08:45:00.303Z,99610.19
2022-11-10T08:47:02.985Z,99614.03
2022-11-10T08:49:05.661Z,99611.56
2022-11-10T08:51:08.352Z,99613.78
2022-11-10T08:53:13.449Z,99618.16
2022-11-10T08:55:16.195Z,99623.63
2022-11-10T08:57:19.162Z,99616.28
2022-11-10T08:59:21.781Z,99624.69
2022-11-10T09:01:24.454Z,99620.88
2022-11-10T09:03:27.375Z,99619.25
2022-11-10T09:05:30.216Z,99619.75
2022-11-10T09:07:54.625Z,99612.41
2022-11-10T09:10:06.876Z,99619.47
2022-11-10T09:12:10.429Z,99611.06
2022-11-10T09:14:13.148Z,99620.88
2022-11-10T09:16:16.139Z,99612.16
2022-11-10T09:18:18.821Z,99587.22
2022-11-10T09:20:21.868Z,99605.59
2022-11-10T09:22:24.936Z,99617.03
2022-11-10T09:24:31.340Z,99614.81
2022-11-10T09:26:34.356Z,99613.44
2022-11-10T09:28:37.067Z,99618.09
2022-11-10T09:30:40.406Z,99608.78
2022-11-10T09:32:46.914Z,99614.75
2022-11-10T09:34:52.986Z,99613.16
2022-11-10T09:36:57.405Z,99615.63
2022-11-10T09:39:00.026Z,99610.50
2022-11-10T09:41:07.876Z,99619.69
2022-11-10T09:43:24.112Z,99619.69
2022-11-10T09:45:33.973Z,99622.41
2022-11-10T09:47:57.744Z,99614.53
2022-11-10T09:50:03.446Z,99605.25
2022-11-10T09:52:08.940Z,99622.13
2022-11-10T09:54:39.520Z,99619.13
2022-11-10T09:56:42.509Z,99615.28
2022-11-10T09:58:46.687Z,99609.00
2022-11-10T10:01:02.841Z,99625.13
2022-11-10T10:03:06.931Z,99612.47
2022-11-10T10:05:34.559Z,99619.25
2022-11-10T10:08:11.309Z,99624.25
2022-11-10T10:10:23.154Z,99618.78
2022-11-10T10:12:31.608Z,99627.47
2022-11-10T10:14:56.972Z,99624.44
2022-11-10T10:16:59.494Z,99628.50
2022-11-10T10:19:26.686Z,99621.97
2022-11-10T10:21:47.378Z,99627.63
2022-11-10T10:24:11.456Z,99622.16
2022-11-10T10:26:18.932Z,99624.09
2022-11-10T10:28:33.834Z,99635.22
2022-11-10T10:30:36.542Z,99625.66
2022-11-10T10:32:39.295Z,99631.63
2022-11-10T10:34:43.813Z,99625.06
2022-11-10T10:36:46.689Z,99627.78
2022-11-10T10:38:54.501Z,99624.47
2022-11-10T10:41:02.627Z,99628.53
2022-11-10T10:43:05.309Z,99622.78
2022-11-10T10:45:21.341Z,99630.38
2022-11-10T10:47:36.845Z,99633.91
2022-11-10T10:49:39.790Z,99639.09
2022-11-10T10:51:43.044Z,99637.75
2022-11-10T10:53:47.968Z,99635.84
2022-11-10T10:56:02.732Z,99628.16
2022-11-10T10:58:27.620Z,99633.91
2022-11-10T11:00:30.348Z,99630.38
2022-11-10T11:02:33.305Z,99636.72
2022-11-10T11:04:37.876Z,99629.84
2022-11-10T11:06:40.684Z,99623.81
2022-11-10T11:08:59.489Z,99626.53
2022-11-10T11:11:12.207Z,99619.97
2022-11-10T11:13:28.446Z,99634.66
2022-11-10T11:15:31.022Z,99623.22
2022-11-10T11:17:34.723Z,99620.19
2022-11-10T11:19:38.376Z,99616.63
2022-11-10T11:21:50.548Z,99618.00
2022-11-10T11:24:44.251Z,99615.19
2022-11-10T11:27:01.297Z,99614.13
2022-11-10T11:29:16.953Z,99621.22
2022-11-10T11:31:45.629Z,99611.59
2022-11-10T11:34:17.623Z,99618.44
2022-11-10T11:36:45.327Z,99625.78
2022-11-10T11:38:58.856Z,99620.84
2022-11-10T11:41:14.410Z,99620.56
2022-11-10T11:43:19.757Z,99609.63
2022-11-10T11:45:55.360Z,99608.50
2022-11-10T11:48:11.531Z,99622.16
2022-11-10T11:50:37.278Z,99608.88
2022-11-10T11:52:46.436Z,99613.78
2022-11-10T11:55:19.793Z,99611.84
2022-11-10T11:58:05.742Z,99622.53
2022-11-10T12:00:15.754Z,99614.34
2022-11-10T12:02:53.246Z,99628.00
2022-11-10T12:05:25.709Z,99616.78
2022-11-10T12:07:36.366Z,99618.44
2022-11-10T12:09:51.183Z,99628.22
2022-11-10T12:12:03.623Z,99635.84
2022-11-10T12:14:12.213Z,99617.03
2022-11-10T12:16:32.327Z,99629.84
2022-11-10T12:18:38.031Z,99619.44
2022-11-10T12:21:13.805Z,99615.38
2022-11-10T12:23:47.120Z,99633.19
2022-11-10T12:26:15.188Z,99626.63
2022-11-10T12:28:26.457Z,99631.25
2022-11-10T12:30:31.189Z,99629.03
2022-11-10T12:33:05.529Z,99631.50
2022-11-10T12:35:20.364Z,99634.22
2022-11-10T12:37:33.561Z,99637.25
2022-11-10T12:39:45.911Z,99638.88
2022-11-10T12:41:58.312Z,99624.69
2022-11-10T12:44:08.452Z,99631.50
2022-11-10T12:46:13.706Z,99625.75
2022-11-10T12:48:18.061Z,99626.53
2022-11-10T12:50:42.148Z,99624.63
2022-11-10T12:52:52.805Z,99631.50
2022-11-10T12:54:55.652Z,99637.75
2022-11-10T12:57:23.943Z,99640.28
2022-11-10T12:59:39.579Z,99618.91
2022-11-10T13:01:51.532Z,99636.16
2022-11-10T13:03:58.120Z,99632.56
2022-11-10T13:06:05.539Z,99639.69
2022-11-10T13:08:30.762Z,99643.22
2022-11-10T13:10:33.589Z,99648.69
2022-11-10T13:12:36.233Z,99644.03
2022-11-10T13:14:39.714Z,99639.44
2022-11-10T13:16:42.286Z,99641.63
2022-11-10T13:18:44.754Z,99634.22
2022-11-10T13:20:56.906Z,99649.28
2022-11-10T13:22:59.547Z,99641.38
2022-11-10T13:25:37.638Z,99636.72
2022-11-10T13:27:43.057Z,99642.50
2022-11-10T13:29:45.563Z,99641.09
2022-11-10T13:31:54.142Z,99642.69
2022-11-10T13:34:28.835Z,99647.38
2022-11-10T13:36:45.638Z,99639.75
2022-11-10T13:38:49.406Z,99646.31
2022-11-10T13:40:52.051Z,99639.75
2022-11-10T13:42:57.384Z,99651.22
2022-11-10T13:45:31.740Z,99641.09
2022-11-10T13:47:44.668Z,99651.22
2022-11-10T13:50:13.156Z,99649.06
2022-11-10T13:52:20.837Z,99652.91
2022-11-10T13:54:40.022Z,99641.97
2022-11-10T13:57:05.091Z,99644.09
2022-11-10T13:59:19.914Z,99650.38
2022-11-10T14:01:27.272Z,99653.94
2022-11-10T14:03:48.099Z,99642.50
2022-11-10T14:06:11.462Z,99644.91
2022-11-10T14:08:18.434Z,99633.78
2022-11-10T14:10:33.572Z,99638.66
2022-11-10T14:12:44.797Z,99633.19
2022-11-10T14:15:00.165Z,99633.47
2022-11-10T14:17:04.060Z,99639.44
2022-11-10T14:19:23.465Z,99653.13
2022-11-10T14:21:35.560Z,99650.91
2022-11-10T14:23:49.290Z,99655.84
2022-11-10T14:26:05.006Z,99652.03
2022-11-10T14:28:27.390Z,99658.06
2022-11-10T14:30:33.642Z,99643.59
2022-11-10T14:32:36.500Z,99652.91
2022-11-10T14:34:54.276Z,99648.53
2022-11-10T14:36:59.345Z,99650.47
2022-11-10T14:39:03.997Z,99635.19
2022-11-10T14:41:14.486Z,99643.06
2022-11-10T14:43:27.680Z,99634.59
2022-11-10T14:45:30.673Z,99635.72
2022-11-10T14:47:33.325Z,99645.00
2022-11-10T14:49:35.985Z,99643.06
2022-11-10T14:51:38.623Z,99639.25
2022-11-10T14:53:55.238Z,99649.38
2022-11-10T14:56:00.239Z,99645.81
2022-11-10T14:58:13.657Z,99648.53
2022-11-10T15:00:20.574Z,99649.06
2022-11-10T15:02:23.328Z,99648.03
2022-11-10T15:04:33.727Z,99652.16
2022-11-10T15:06:36.691Z,99657.59
2022-11-10T15:08:41.136Z,99653.78
2022-11-10T15:10:49.317Z,99646.41
2022-11-10T15:13:07.156Z,99644.47
2022-11-10T15:15:22.330Z,99648.03
2022-11-10T15:17:48.125Z,99647.81
2022-11-10T15:19:50.659Z,99646.13
2022-11-10T15:21:53.311Z,99649.66
2022-11-10T15:24:00.003Z,99646.91
2022-11-10T15:26:07.260Z,99642.56
2022-11-10T15:28:12.614Z,99650.16
2022-11-10T15:30:25.644Z,99639.84
2022-11-10T15:32:40.903Z,99643.06
2022-11-10T15:34:45.697Z,99642.78
2022-11-10T15:36:48.394Z,99646.31
2022-11-10T15:39:06.287Z,99646.84
2022-11-10T15:41:27.378Z,99635.91
2022-11-10T15:43:30.407Z,99636.50
2022-11-10T15:45:33.040Z,99638.44
2022-11-10T15:47:35.786Z,99641.16
2022-11-10T15:49:39.225Z,99654.00
2022-11-10T15:51:41.884Z,99644.19
2022-11-10T15:53:49.322Z,99637.59
2022-11-10T15:55:51.961Z,99639.16
2022-11-10T15:57:54.626Z,99638.66
2022-11-10T15:59:57.301Z,99641.91
2022-11-10T16:02:00.048Z,99643.50
2022-11-10T16:04:02.773Z,99633.19
2022-11-10T16:06:05.858Z,99636.94
2022-11-10T16:08:19.938Z,99632.91
2022-11-10T16:10:24.942Z,99628.75
2022-11-10T16:12:28.002Z,99621.06
2022-11-10T16:14:30.709Z,99631.50
2022-11-10T16:16:33.384Z,99638.56
2022-11-10T16:18:37.977Z,99627.06
2022-11-10T16:20:43.949Z,99623.06
2022-11-10T16:22:46.631Z,99630.97
2022-11-10T16:24:49.273Z,99625.50
2022-11-10T16:26:51.917Z,99618.44
2022-11-10T16:28:54.570Z,99627.44
2022-11-10T16:30:57.159Z,99625.25
2022-11-10T16:33:00.371Z,99629.34
2022-11-10T16:35:03.961Z,99629.34
2022-11-10T16:37:06.788Z,99633.19
2022-11-10T16:39:15.024Z,99634.50
2022-11-10T16:41:17.741Z,99620.03
2022-11-10T16:43:20.726Z,99635.63
2022-11-10T16:45:30.215Z,99636.44
2022-11-10T16:47:33.026Z,99637.56
2022-11-10T16:49:36.173Z,99631.78
2022-11-10T16:51:48.549Z,99614.22
2022-11-10T16:53:53.468Z,99632.56
2022-11-10T16:55:56.453Z,99627.44
2022-11-10T16:57:59.477Z,99630.72
2022-11-10T17:00:02.331Z,99621.72
2022-11-10T17:02:24.457Z,99623.94
2022-11-10T17:04:27.159Z,99622.94
2022-11-10T17:06:30.754Z,99621.81
2022-11-10T17:08:35.705Z,99628.69
2022-11-10T17:10:38.659Z,99622.69
2022-11-10T17:12:41.370Z,99621.38
2022-11-10T17:14:44.025Z,99619.44
2022-11-10T17:16:47.559Z,99621.97
2022-11-10T17:18:50.955Z,99632.38
2022-11-10T17:20:53.626Z,99626.38
2022-11-10T17:22:56.895Z,99622.84
2022-11-10T17:24:59.680Z,99626.16
2022-11-10T17:27:02.567Z,99622.63
2022-11-10T17:29:05.285Z,99627.56
2022-11-10T17:31:08.154Z,99623.22
2022-11-10T17:33:11.023Z,99621.06
2022-11-10T17:35:13.795Z,99618.63
2022-11-10T17:37:16.849Z,99624.91
2022-11-10T17:39:19.891Z,99611.03
2022-11-10T17:41:22.633Z,99604.75
2022-11-10T17:43:25.796Z,99614.03
2022-11-10T17:45:30.253Z,99597.38
2022-11-10T17:47:32.897Z,99606.13
2022-11-10T17:49:35.499Z,99595.28
2022-11-10T17:51:38.306Z,99601.56
2022-11-10T17:53:42.732Z,99598.03
2022-11-10T17:55:45.611Z,99589.63
2022-11-10T17:57:48.682Z,99594.84
2022-11-10T17:59:51.451Z,99583.72
2022-11-10T18:01:54.194Z,99601.19
2022-11-10T18:03:56.894Z,99586.47
2022-11-10T18:05:59.573Z,99587.84
2022-11-10T18:08:02.281Z,99605.09
2022-11-10T18:10:06.087Z,99597.41
2022-11-10T18:12:08.762Z,99589.22
2022-11-10T18:14:11.900Z,99595.25
2022-11-10T18:16:14.995Z,99603.16
2022-11-10T18:18:18.511Z,99607.31
2022-11-10T18:20:21.189Z,99605.66
2022-11-10T18:22:23.891Z,99606.47
2022-11-10T18:24:26.461Z,99601.00
2022-11-10T18:26:29.148Z,99614.44
2022-11-10T18:28:31.963Z,99608.75
2022-11-10T18:30:35.638Z,99606.53
2022-11-10T18:32:38.305Z,99597.53
2022-11-10T18:34:40.987Z,99605.44
2022-11-10T18:36:43.732Z,99596.94
2022-11-10T18:38:46.447Z,99597.47
2022-11-10T18:40:49.081Z,99599.91
2022-11-10T18:42:55.595Z,99587.06
2022-11-10T18:44:58.239Z,99587.06
2022-11-10T18:47:00.901Z,99589.81
2022-11-10T18:49:03.659Z,99582.44
2022-11-10T18:51:06.658Z,99588.72
2022-11-10T18:53:09.860Z,99588.41
2022-11-10T18:55:12.880Z,99576.22
2022-11-10T18:57:16.911Z,99587.59
2022-11-10T18:59:20.277Z,99593.06
2022-11-10T19:01:23.237Z,99591.13
2022-11-10T19:03:26.366Z,99591.44
2022-11-10T19:05:29.310Z,99596.31
2022-11-10T19:07:32.174Z,99593.59
2022-11-10T19:09:35.169Z,99591.94
2022-11-10T19:11:38.512Z,99598.53
2022-11-10T19:13:41.379Z,99590.34
2022-11-10T19:15:44.138Z,99586.47
2022-11-10T19:17:46.775Z,99591.94
2022-11-10T19:19:55.045Z,99580.75
2022-11-10T19:21:59.215Z,99590.34
2022-11-10T19:24:01.963Z,99579.13
2022-11-10T19:26:10.716Z,99581.88
2022-11-10T19:28:13.791Z,99601.25
2022-11-10T19:30:16.731Z,99581.03
2022-11-10T19:32:24.523Z,99577.81
2022-11-10T19:34:27.542Z,99580.81
2022-11-10T19:36:30.252Z,99575.88
2022-11-10T19:38:33.578Z,99574.25
2022-11-10T19:40:39.443Z,99593.06
2022-11-10T19:42:42.115Z,99577.50
2022-11-10T19:44:44.744Z,99572.34
2022-11-10T19:46:47.471Z,99573.44
2022-11-10T19:48:50.839Z,99576.97
2022-11-10T19:50:57.636Z,99569.09
2022-11-10T19:53:00.290Z,99580.53
2022-11-10T19:55:02.961Z,99583.25
2022-11-10T19:57:07.116Z,99579.69
2022-11-10T19:59:09.870Z,99580.53
2022-11-10T20:01:13.340Z,99585.69
2022-11-10T20:03:16.066Z,99575.34
2022-11-10T20:05:18.707Z,99588.72
2022-11-10T20:07:40.117Z,99585.16
2022-11-10T20:09:42.766Z,99591.13
2022-11-10T20:11:46.346Z,99598.25
2022-11-10T20:13:54.361Z,99593.00
2022-11-10T20:15:57.730Z,99596.31
2022-11-10T20:18:00.378Z,99602.28
2022-11-10T20:20:03.225Z,99597.94
2022-11-10T20:22:07.217Z,99602.22
2022-11-10T20:24:09.900Z,99604.97
2022-11-10T20:26:16.180Z,99598.09
2022-11-10T20:28:18.889Z,99601.63
2022-11-10T20:30:23.803Z,99597.81
2022-11-10T20:32:27.166Z,99607.91
2022-11-10T20:34:29.815Z,99600.53
2022-11-10T20:36:34.136Z,99603.78
2022-11-10T20:38:37.658Z,99608.13
2022-11-10T20:40:44.839Z,99594.19
2022-11-10T20:42:47.857Z,99609.47
2022-11-10T20:44:50.484Z,99590.88
2022-11-10T20:46:54.808Z,99584.09
2022-11-10T20:48:57.931Z,99579.66
2022-11-10T20:51:01.325Z,99591.41
2022-11-10T20:53:05.997Z,99582.41
2022-11-10T20:55:08.771Z,99578.56
2022-11-10T20:57:11.750Z,99589.19
2022-11-10T20:59:14.926Z,99581.28
2022-11-10T21:01:17.793Z,99598.19
2022-11-10T21:03:22.450Z,99585.06
2022-11-10T21:05:25.488Z,99582.31
2022-11-10T21:07:29.597Z,99585.84
2022-11-10T21:09:32.352Z,99577.94
2022-11-10T21:11:53.725Z,99576.53
2022-11-10T21:13:56.330Z,99570.28
2022-11-10T21:16:01.178Z,99580.13
2022-11-10T21:18:03.891Z,99580.13
2022-11-10T21:20:07.794Z,99580.59
2022-11-10T21:22:10.460Z,99583.66
2022-11-10T21:24:13.058Z,99586.38
2022-11-10T21:26:15.712Z,99583.06
2022-11-10T21:28:18.457Z,99586.91
2022-11-10T21:30:23.726Z,99581.13
2022-11-10T21:32:26.394Z,99582.75
2022-11-10T21:34:29.058Z,99580.25
2022-11-10T21:36:31.864Z,99584.91
2022-11-10T21:38:36.061Z,99578.34
2022-11-10T21:40:38.910Z,99581.88
2022-11-10T21:42:41.521Z,99574.50
2022-11-10T21:44:44.278Z,99576.19
2022-11-10T21:46:47.377Z,99572.28
2022-11-10T21:48:50.904Z,99585.13
2022-11-10T21:50:53.524Z,99569.84
2022-11-10T21:52:56.160Z,99569.56
2022-11-10T21:54:59.746Z,99570.63
2022-11-10T21:57:02.357Z,99574.69
2022-11-10T21:59:04.982Z,99565.19
2022-11-10T22:01:16.327Z,99576.63
2022-11-10T22:03:19.168Z,99569.56
2022-11-10T22:05:21.797Z,99576.63
2022-11-10T22:07:24.630Z,99566.22
2022-11-10T22:09:45.850Z,99565.50
2022-11-10T22:12:07.198Z,99573.09
2022-11-10T22:14:32.174Z,99573.69
2022-11-10T22:17:05.427Z,99567.91
2022-11-10T22:19:08.772Z,99574.50
2022-11-10T22:21:12.187Z,99567.41
2022-11-10T22:23:15.082Z,99563.03
2022-11-10T22:25:17.760Z,99568.50
2022-11-10T22:27:20.390Z,99573.97
2022-11-10T22:29:27.349Z,99569.09
2022-11-10T22:31:34.085Z,99567.47
2022-11-10T22:33:39.101Z,99563.94
2022-11-10T22:35:44.278Z,99566.66
2022-11-10T22:37:46.859Z,99580.59
2022-11-10T22:40:07.968Z,99582.84
2022-11-10T22:42:31.197Z,99586.66
2022-11-10T22:44:33.839Z,99586.66
2022-11-10T22:46:48.329Z,99593.25
2022-11-10T22:48:51.050Z,99592.19
2022-11-10T22:50:57.687Z,99597.06
2022-11-10T22:53:00.246Z,99600.63
2022-11-10T22:55:02.852Z,99595.16
2022-11-10T22:57:05.885Z,99595.16
2022-11-10T22:59:09.044Z,99596.78
2022-11-10T23:01:12.132Z,99596.06
2022-11-10T23:03:14.956Z,99596.53
2022-11-10T23:05:17.539Z,99597.94
2022-11-10T23:07:20.155Z,99607.25
2022-11-10T23:09:22.888Z,99596.34
2022-11-10T23:11:28.793Z,99602.59
2022-11-10T23:13:32.900Z,99600.41
2022-11-10T23:15:35.474Z,99606.44
2022-11-10T23:17:38.175Z,99606.22
2022-11-10T23:19:40.999Z,99613.31
2022-11-10T23:21:43.582Z,99605.13
2022-11-10T23:23:47.406Z,99615.53
2022-11-10T23:26:04.439Z,99608.13
2022-11-10T23:28:07.634Z,99597.75
2022-11-10T23:30:10.752Z,99613.59
2022-11-10T23:32:13.352Z,99615.22
2022-11-10T23:34:15.943Z,99605.13
2022-11-10T23:36:20.141Z,99607.03
2022-11-10T23:38:22.739Z,99601.06
2022-11-10T23:40:25.345Z,99610.50
2022-11-10T23:42:30.976Z,99602.00
2022-11-10T23:44:35.685Z,99609.38
2022-11-10T23:46:38.316Z,99600.13
2022-11-10T23:48:41.707Z,99603.66
2022-11-10T23:50:44.948Z,99602.84
2022-11-10T23:52:47.512Z,99592.72
2022-11-10T23:54:50.211Z,99608.81
2022-11-10T23:56:53.236Z,99606.91
2022-11-10T23:58:55.816Z,99593.81
